createdAt,value
2023-05-16T00:01:35.143Z,86.60
2023-05-16T00:03:42.025Z,86.30
2023-05-16T00:05:49.445Z,86.10
2023-05-16T00:07:58.062Z,85.90
2023-05-16T00:10:05.246Z,85.40
2023-05-16T00:12:12.525Z,85.10
2023-05-16T00:14:20.323Z,84.70
2023-05-16T00:16:27.338Z,84.00
2023-05-16T00:18:34.396Z,83.40
2023-05-16T00:20:41.251Z,83.00
2023-05-16T00:22:48.447Z,82.50
2023-05-16T00:24:57.099Z,82.10
2023-05-16T00:27:05.156Z,81.70
2023-05-16T00:29:11.928Z,81.50
2023-05-16T00:31:19.129Z,81.10
2023-05-16T00:33:26.014Z,80.30
2023-05-16T00:35:33.332Z,80.10
2023-05-16T00:37:40.548Z,79.90
2023-05-16T00:39:47.632Z,79.50
2023-05-16T00:41:56.280Z,79.20
2023-05-16T00:44:03.533Z,78.70
2023-05-16T00:46:10.655Z,78.10
2023-05-16T00:48:18.816Z,77.80
2023-05-16T00:50:26.108Z,77.70
2023-05-16T00:52:34.761Z,77.60
2023-05-16T00:54:42.562Z,77.30
2023-05-16T00:56:49.896Z,76.80
2023-05-16T00:58:58.613Z,76.40
2023-05-16T01:01:06.547Z,76.40
2023-05-16T01:03:13.527Z,76.00
2023-05-16T01:05:20.779Z,75.40
2023-05-16T01:07:27.796Z,75.30
2023-05-16T01:09:35.063Z,75.30
2023-05-16T01:11:52.348Z,75.20
2023-05-16T01:14:12.486Z,74.80
2023-05-16T01:16:25.510Z,74.80
2023-05-16T01:18:40.668Z,74.60
2023-05-16T01:20:53.124Z,74.10
2023-05-16T01:23:15.307Z,73.50
2023-05-16T01:25:34.518Z,73.20
2023-05-16T01:27:44.004Z,73.10
2023-05-16T01:29:50.781Z,72.70
2023-05-16T01:31:59.310Z,72.70
2023-05-16T01:34:06.318Z,72.20
2023-05-16T01:36:18.979Z,71.90
2023-05-16T01:38:30.019Z,71.60
2023-05-16T01:40:48.136Z,71.30
2023-05-16T01:42:59.158Z,70.80
2023-05-16T01:45:15.975Z,71.20
2023-05-16T01:47:26.558Z,71.00
2023-05-16T01:49:42.521Z,71.00
2023-05-16T01:51:54.772Z,70.70
2023-05-16T01:54:08.655Z,70.00
2023-05-16T01:56:20.610Z,69.80
2023-05-16T01:58:33.900Z,69.50
2023-05-16T02:00:41.022Z,69.60
2023-05-16T02:02:47.996Z,69.40
2023-05-16T02:04:56.850Z,68.70
2023-05-16T02:07:08.383Z,68.20
2023-05-16T02:09:15.208Z,67.90
2023-05-16T02:11:23.213Z,67.40
2023-05-16T02:13:33.001Z,66.30
2023-05-16T02:15:43.101Z,66.40
2023-05-16T02:17:50.068Z,66.80
2023-05-16T02:19:57.263Z,66.30
2023-05-16T02:22:04.135Z,65.80
2023-05-16T02:24:13.057Z,65.20
2023-05-16T02:26:19.981Z,64.20
2023-05-16T02:28:27.017Z,64.50
2023-05-16T02:30:35.765Z,64.20
2023-05-16T02:32:45.907Z,63.60
2023-05-16T02:34:52.857Z,62.60
2023-05-16T02:36:59.531Z,61.50
2023-05-16T02:39:06.812Z,61.10
2023-05-16T02:41:13.634Z,60.80
2023-05-16T02:43:22.043Z,60.60
2023-05-16T02:45:29.954Z,60.80
2023-05-16T02:47:38.685Z,60.50
2023-05-16T02:49:45.482Z,60.50
2023-05-16T02:51:52.868Z,59.90
2023-05-16T02:54:00.824Z,59.10
2023-05-16T02:56:08.221Z,58.90
2023-05-16T02:58:15.131Z,58.80
2023-05-16T03:00:22.874Z,58.50
2023-05-16T03:02:29.693Z,57.70
2023-05-16T03:04:38.608Z,57.70
2023-05-16T03:06:45.459Z,57.90
2023-05-16T03:08:52.527Z,58.20
2023-05-16T03:11:00.166Z,58.50
2023-05-16T03:13:07.193Z,57.50
2023-05-16T03:15:14.476Z,56.40
2023-05-16T03:17:21.720Z,56.80
2023-05-16T03:19:28.583Z,57.50
2023-05-16T03:21:37.406Z,57.30
2023-05-16T03:23:46.699Z,56.70
2023-05-16T03:25:53.867Z,57.00
2023-05-16T03:28:00.799Z,56.80
2023-05-16T03:30:08.217Z,56.90
2023-05-16T03:32:15.829Z,56.10
2023-05-16T03:34:23.209Z,55.80
2023-05-16T03:36:30.441Z,55.50
2023-05-16T03:38:39.623Z,54.50
2023-05-16T03:40:46.600Z,54.10
2023-05-16T03:42:53.730Z,53.70
2023-05-16T03:45:00.659Z,54.40
2023-05-16T03:47:07.930Z,54.30
2023-05-16T03:49:14.817Z,53.50
2023-05-16T03:51:22.505Z,54.40
2023-05-16T03:53:29.379Z,53.80
2023-05-16T03:55:38.097Z,54.20
2023-05-16T03:57:45.636Z,54.80
2023-05-16T03:59:52.768Z,54.70
2023-05-16T04:01:59.760Z,54.10
2023-05-16T04:04:07.287Z,54.50
2023-05-16T04:06:14.262Z,54.70
2023-05-16T04:08:21.339Z,53.40
2023-05-16T04:10:29.246Z,53.50
2023-05-16T04:12:38.371Z,53.00
2023-05-16T04:14:45.137Z,53.00
2023-05-16T04:16:52.686Z,53.60
2023-05-16T04:19:00.459Z,53.50
2023-05-16T04:21:08.679Z,52.90
2023-05-16T04:23:15.554Z,52.70
2023-05-16T04:25:22.633Z,51.70
2023-05-16T04:27:30.021Z,52.70
2023-05-16T04:29:38.857Z,53.00
2023-05-16T04:31:45.843Z,52.70
2023-05-16T04:33:53.359Z,51.60
2023-05-16T04:36:01.154Z,51.80
2023-05-16T04:38:08.491Z,51.50
2023-05-16T04:40:16.044Z,51.00
2023-05-16T04:42:23.059Z,50.80
2023-05-16T04:44:30.351Z,51.80
2023-05-16T04:46:38.954Z,51.90
2023-05-16T04:48:46.197Z,52.00
2023-05-16T04:50:53.484Z,51.10
2023-05-16T04:53:00.825Z,50.70
2023-05-16T04:55:08.155Z,50.60
2023-05-16T04:57:15.078Z,50.20
2023-05-16T04:59:22.263Z,50.30
2023-05-16T05:01:29.454Z,50.20
2023-05-16T05:03:38.306Z,50.20
2023-05-16T05:05:45.282Z,50.10
2023-05-16T05:07:52.310Z,50.30
2023-05-16T05:09:59.387Z,48.20
2023-05-16T05:12:06.363Z,50.70
2023-05-16T05:14:13.551Z,51.10
2023-05-16T05:16:20.422Z,50.90
2023-05-16T05:18:27.693Z,50.80
2023-05-16T05:20:36.222Z,50.80
2023-05-16T05:22:43.312Z,50.80
2023-05-16T05:24:50.592Z,50.60
2023-05-16T05:26:57.613Z,50.00
2023-05-16T05:29:06.149Z,50.50
2023-05-16T05:31:13.622Z,49.20
2023-05-16T05:33:21.497Z,49.80
2023-05-16T05:35:28.981Z,49.10
2023-05-16T05:37:38.175Z,49.70
2023-05-16T05:39:45.368Z,50.10
2023-05-16T05:41:52.284Z,50.30
2023-05-16T05:43:59.410Z,50.00
2023-05-16T05:46:06.512Z,50.30
2023-05-16T05:48:13.930Z,50.50
2023-05-16T05:50:20.801Z,50.20
2023-05-16T05:52:29.415Z,49.50
2023-05-16T05:54:37.933Z,48.70
2023-05-16T05:56:45.114Z,47.80
2023-05-16T05:58:51.947Z,48.50
2023-05-16T06:00:58.916Z,48.60
2023-05-16T06:03:05.789Z,48.70
2023-05-16T06:05:13.503Z,49.60
2023-05-16T06:07:20.514Z,50.00
2023-05-16T06:09:27.538Z,49.90
2023-05-16T06:11:36.104Z,49.00
2023-05-16T06:13:43.032Z,47.80
2023-05-16T06:15:54.382Z,47.70
2023-05-16T06:18:01.599Z,47.20
2023-05-16T06:20:09.474Z,46.40
2023-05-16T06:22:16.317Z,46.40
2023-05-16T06:24:23.247Z,46.70
2023-05-16T06:26:30.216Z,46.60
2023-05-16T06:28:38.835Z,46.60
2023-05-16T06:30:45.805Z,46.20
2023-05-16T06:32:53.341Z,47.40
2023-05-16T06:35:00.323Z,47.90
2023-05-16T06:37:07.352Z,46.90
2023-05-16T06:39:14.227Z,46.80
2023-05-16T06:41:21.256Z,46.80
2023-05-16T06:43:28.186Z,46.60
2023-05-16T06:45:36.998Z,46.90
2023-05-16T06:47:43.909Z,46.50
2023-05-16T06:49:51.066Z,46.00
2023-05-16T06:51:57.980Z,46.20
2023-05-16T06:54:05.213Z,46.50
2023-05-16T06:56:12.297Z,46.20
2023-05-16T06:58:19.379Z,46.20
2023-05-16T07:00:26.576Z,45.90
2023-05-16T07:02:35.562Z,45.60
2023-05-16T07:04:42.455Z,45.60
2023-05-16T07:06:49.483Z,45.80
2023-05-16T07:08:56.357Z,46.50
2023-05-16T07:11:03.844Z,46.30
2023-05-16T07:13:10.830Z,46.80
2023-05-16T07:15:17.902Z,45.70
2023-05-16T07:17:24.871Z,45.80
2023-05-16T07:19:33.697Z,46.00
2023-05-16T07:21:40.525Z,45.80
2023-05-16T07:23:47.804Z,44.10
2023-05-16T07:25:54.782Z,45.90
2023-05-16T07:28:01.998Z,46.60
2023-05-16T07:30:09.511Z,46.80
2023-05-16T07:32:16.571Z,46.40
2023-05-16T07:34:23.514Z,46.30
2023-05-16T07:36:32.388Z,45.80
2023-05-16T07:38:39.304Z,45.20
2023-05-16T07:40:49.504Z,45.70
2023-05-16T07:42:56.588Z,45.60
2023-05-16T07:45:03.925Z,45.80
2023-05-16T07:47:11.047Z,45.70
2023-05-16T07:49:18.075Z,46.00
2023-05-16T07:51:24.999Z,46.10
2023-05-16T07:53:33.819Z,46.60
2023-05-16T07:55:40.805Z,45.40
2023-05-16T07:57:48.148Z,45.30
2023-05-16T07:59:55.265Z,45.30
2023-05-16T08:02:02.479Z,46.10
2023-05-16T08:04:09.457Z,46.40
2023-05-16T08:06:18.137Z,46.10
2023-05-16T08:08:25.062Z,46.30
2023-05-16T08:10:33.885Z,45.20
2023-05-16T08:12:40.918Z,45.30
2023-05-16T08:14:48.350Z,44.70
2023-05-16T08:16:55.228Z,44.30
2023-05-16T08:19:02.440Z,44.50
2023-05-16T08:21:11.942Z,44.40
2023-05-16T08:23:19.328Z,44.50
2023-05-16T08:25:26.932Z,43.80
2023-05-16T08:27:36.054Z,43.50
2023-05-16T08:29:42.923Z,43.40
2023-05-16T08:31:50.203Z,43.60
2023-05-16T08:33:57.133Z,43.40
2023-05-16T08:36:04.620Z,43.80
2023-05-16T08:38:11.505Z,43.90
2023-05-16T08:40:21.644Z,43.60
2023-05-16T08:42:28.673Z,43.10
2023-05-16T08:44:38.573Z,43.00
2023-05-16T08:46:46.150Z,42.50
2023-05-16T08:48:56.775Z,42.60
2023-05-16T08:51:05.833Z,42.20
2023-05-16T08:53:15.128Z,42.20
2023-05-16T08:55:24.167Z,41.70
2023-05-16T08:57:31.856Z,41.20
2023-05-16T08:59:40.772Z,40.70
2023-05-16T09:01:48.164Z,40.80
2023-05-16T09:03:56.025Z,40.40
2023-05-16T09:06:05.461Z,40.30
2023-05-16T09:08:12.993Z,40.70
2023-05-16T09:10:20.267Z,41.40
2023-05-16T09:12:27.757Z,41.70
2023-05-16T09:14:35.044Z,41.00
2023-05-16T09:16:43.715Z,41.00
2023-05-16T09:18:56.642Z,40.60
2023-05-16T09:21:04.164Z,40.30
2023-05-16T09:23:12.879Z,40.30
2023-05-16T09:25:29.424Z,40.20
2023-05-16T09:27:37.841Z,40.00
2023-05-16T09:29:45.739Z,40.30
2023-05-16T09:31:54.511Z,40.70
2023-05-16T09:34:01.603Z,40.80
2023-05-16T09:36:09.076Z,41.10
2023-05-16T09:38:19.333Z,41.10
2023-05-16T09:40:27.023Z,40.50
2023-05-16T09:42:37.280Z,40.90
2023-05-16T09:44:44.908Z,41.10
2023-05-16T09:46:56.839Z,41.30
2023-05-16T09:49:03.837Z,41.30
2023-05-16T09:51:11.588Z,41.60
2023-05-16T09:53:18.551Z,42.10
2023-05-16T09:55:27.473Z,42.30
2023-05-16T09:57:34.358Z,42.20
2023-05-16T09:59:42.305Z,42.30
2023-05-16T10:01:50.450Z,41.60
2023-05-16T10:04:00.819Z,41.60
2023-05-16T10:06:08.767Z,41.90
2023-05-16T10:08:16.873Z,42.00
2023-05-16T10:10:24.034Z,42.90
2023-05-16T10:12:34.611Z,43.40
2023-05-16T10:14:45.124Z,43.90
2023-05-16T10:16:53.235Z,43.50
2023-05-16T10:19:03.129Z,42.80
2023-05-16T10:21:12.272Z,42.70
2023-05-16T10:23:21.732Z,42.70
2023-05-16T10:25:35.622Z,43.00
2023-05-16T10:27:44.171Z,43.30
2023-05-16T10:29:54.658Z,43.80
2023-05-16T10:32:03.880Z,43.80
2023-05-16T10:34:12.692Z,44.20
2023-05-16T10:36:21.257Z,44.10
2023-05-16T10:38:29.770Z,44.20
2023-05-16T10:40:37.153Z,44.20
2023-05-16T10:42:47.408Z,44.70
2023-05-16T10:45:05.631Z,45.20
2023-05-16T10:47:13.188Z,45.00
2023-05-16T10:49:29.380Z,45.50
2023-05-16T10:51:41.071Z,45.60
2023-05-16T10:53:48.147Z,45.60
2023-05-16T10:56:13.379Z,46.10
2023-05-16T10:58:27.291Z,47.60
2023-05-16T11:00:34.835Z,47.10
2023-05-16T11:02:45.919Z,47.50
2023-05-16T11:04:58.631Z,47.80
2023-05-16T11:07:07.793Z,47.70
2023-05-16T11:09:28.136Z,47.70
2023-05-16T11:11:48.969Z,48.00
2023-05-16T11:13:59.390Z,48.20
2023-05-16T11:16:41.315Z,48.20
2023-05-16T11:18:54.647Z,48.30
2023-05-16T11:21:07.735Z,48.20
2023-05-16T11:23:28.536Z,48.70
2023-05-16T11:25:42.226Z,49.30
2023-05-16T11:27:49.917Z,48.90
2023-05-16T11:29:59.746Z,49.50
2023-05-16T11:32:09.499Z,49.50
2023-05-16T11:34:16.936Z,49.40
2023-05-16T11:36:31.747Z,49.70
2023-05-16T11:38:39.036Z,49.90
2023-05-16T11:40:47.394Z,50.10
2023-05-16T11:42:54.624Z,50.30
2023-05-16T11:45:09.670Z,50.30
2023-05-16T11:47:17.243Z,50.30
2023-05-16T11:49:24.859Z,50.40
2023-05-16T11:51:34.052Z,50.40
2023-05-16T11:53:41.494Z,50.30
2023-05-16T11:55:55.724Z,50.50
2023-05-16T11:58:03.794Z,50.80
2023-05-16T12:00:19.218Z,51.30
2023-05-16T12:02:26.668Z,51.10
2023-05-16T12:04:34.786Z,51.20
2023-05-16T12:06:46.099Z,51.10
2023-05-16T12:08:54.801Z,51.20
2023-05-16T12:11:01.981Z,51.20
2023-05-16T12:13:09.979Z,51.50
2023-05-16T12:15:18.344Z,51.60
2023-05-16T12:17:25.962Z,51.60
2023-05-16T12:19:33.143Z,51.90
2023-05-16T12:21:42.246Z,52.00
2023-05-16T12:23:49.378Z,52.00
2023-05-16T12:25:58.818Z,52.20
2023-05-16T12:28:08.865Z,52.60
2023-05-16T12:30:17.168Z,52.50
2023-05-16T12:32:24.668Z,52.50
2023-05-16T12:34:33.426Z,52.70
2023-05-16T12:36:42.247Z,52.40
2023-05-16T12:38:53.729Z,52.30
2023-05-16T12:41:02.761Z,52.50
2023-05-16T12:43:17.258Z,52.70
2023-05-16T12:45:26.331Z,52.60
2023-05-16T12:47:41.349Z,52.30
2023-05-16T12:49:52.471Z,52.20
2023-05-16T12:52:06.720Z,52.20
2023-05-16T12:54:15.876Z,52.40
2023-05-16T12:56:23.026Z,52.20
2023-05-16T12:58:30.649Z,52.30
2023-05-16T13:00:38.565Z,52.50
2023-05-16T13:02:45.741Z,52.60
2023-05-16T13:04:53.186Z,52.70
2023-05-16T13:07:02.005Z,52.60
2023-05-16T13:09:09.288Z,52.20
2023-05-16T13:11:16.581Z,52.20
2023-05-16T13:13:35.430Z,52.10
2023-05-16T13:15:43.462Z,52.00
2023-05-16T13:17:50.933Z,51.90
2023-05-16T13:19:58.012Z,52.00
2023-05-16T13:22:07.126Z,52.20
2023-05-16T13:24:14.155Z,52.50
2023-05-16T13:26:22.683Z,52.40
2023-05-16T13:28:29.490Z,52.80
2023-05-16T13:30:36.725Z,52.60
2023-05-16T13:32:43.572Z,52.50
2023-05-16T13:34:50.778Z,52.80
2023-05-16T13:36:57.703Z,52.80
2023-05-16T13:39:07.242Z,52.70
2023-05-16T13:41:14.419Z,53.00
2023-05-16T13:43:21.742Z,53.10
2023-05-16T13:45:29.035Z,53.20
2023-05-16T13:47:35.987Z,53.20
2023-05-16T13:49:43.104Z,53.30
2023-05-16T13:51:49.977Z,53.30
2023-05-16T13:53:57.446Z,53.20
2023-05-16T13:56:06.030Z,53.60
2023-05-16T13:58:13.356Z,53.90
2023-05-16T14:02:30.829Z,54.00
2023-05-16T14:04:37.978Z,54.30
2023-05-16T14:06:45.105Z,54.40
2023-05-16T14:08:51.977Z,54.20
2023-05-16T14:10:59.310Z,54.30
2023-05-16T14:13:08.456Z,54.30
2023-05-16T14:15:15.786Z,54.40
2023-05-16T14:17:22.956Z,54.60
2023-05-16T14:19:30.414Z,54.90
2023-05-16T14:21:37.319Z,54.90
2023-05-16T14:23:44.405Z,55.10
2023-05-16T14:25:51.481Z,55.20
2023-05-16T14:27:58.558Z,55.70
2023-05-16T14:30:07.639Z,55.80
2023-05-16T14:32:15.100Z,56.00
2023-05-16T14:34:23.278Z,56.30
2023-05-16T14:36:30.819Z,56.70
2023-05-16T14:38:37.779Z,56.60
2023-05-16T14:40:44.927Z,56.70
2023-05-16T14:42:52.006Z,56.80
2023-05-16T14:44:59.019Z,56.90
2023-05-16T14:47:08.014Z,57.20
2023-05-16T14:49:15.099Z,57.30
2023-05-16T14:51:21.964Z,57.30
2023-05-16T14:53:29.042Z,57.40
2023-05-16T14:55:35.868Z,57.60
2023-05-16T14:57:45.248Z,57.70
2023-05-16T14:59:52.430Z,57.60
2023-05-16T15:02:00.486Z,57.70
2023-05-16T15:04:09.217Z,57.80
2023-05-16T15:06:16.385Z,57.70
2023-05-16T15:08:23.613Z,57.70
2023-05-16T15:10:30.793Z,57.90
2023-05-16T15:12:37.676Z,58.00
2023-05-16T15:14:44.812Z,57.90
2023-05-16T15:16:51.687Z,57.80
2023-05-16T15:18:59.697Z,57.80
2023-05-16T15:21:08.545Z,57.80
2023-05-16T15:23:15.570Z,57.90
2023-05-16T15:25:22.755Z,57.80
2023-05-16T15:27:29.934Z,58.00
2023-05-16T15:29:36.983Z,58.20
2023-05-16T15:31:44.112Z,58.50
2023-05-16T15:33:51.051Z,58.40
2023-05-16T15:35:59.138Z,58.40
2023-05-16T15:38:09.515Z,58.50
2023-05-16T15:40:17.801Z,58.90
2023-05-16T15:42:24.613Z,59.90
2023-05-16T15:44:31.792Z,60.60
2023-05-16T15:46:38.930Z,60.80
2023-05-16T15:48:46.313Z,60.80
2023-05-16T15:50:53.490Z,60.70
2023-05-16T15:53:00.877Z,60.60
2023-05-16T15:55:10.979Z,60.40
2023-05-16T15:57:18.039Z,60.40
2023-05-16T15:59:24.783Z,60.20
2023-05-16T16:01:31.862Z,60.40
2023-05-16T16:03:38.893Z,60.50
2023-05-16T16:05:46.154Z,60.70
2023-05-16T16:07:53.253Z,60.70
2023-05-16T16:10:00.811Z,61.00
2023-05-16T16:12:10.122Z,61.10
2023-05-16T16:14:17.148Z,61.30
2023-05-16T16:16:24.381Z,61.30
2023-05-16T16:18:31.607Z,61.40
2023-05-16T16:20:38.539Z,61.50
2023-05-16T16:22:45.669Z,61.50
2023-05-16T16:24:52.545Z,61.60
2023-05-16T16:26:59.776Z,61.60
2023-05-16T16:29:08.391Z,61.80
2023-05-16T16:31:15.664Z,62.40
2023-05-16T16:33:22.584Z,62.20
2023-05-16T16:35:30.144Z,62.00
2023-05-16T16:37:37.788Z,62.00
2023-05-16T16:39:44.863Z,62.10
2023-05-16T16:41:51.692Z,62.50
2023-05-16T16:43:58.828Z,63.10
2023-05-16T16:46:07.534Z,63.00
2023-05-16T16:48:15.110Z,63.00
2023-05-16T16:50:22.356Z,62.90
2023-05-16T16:52:29.293Z,62.60
2023-05-16T16:54:36.109Z,62.60
2023-05-16T16:56:43.087Z,62.70
2023-05-16T16:58:50.173Z,63.10
2023-05-16T17:00:57.194Z,63.50
2023-05-16T17:03:06.329Z,63.10
2023-05-16T17:05:14.574Z,62.90
2023-05-16T17:07:21.707Z,64.00
2023-05-16T17:09:28.634Z,64.50
2023-05-16T17:11:37.279Z,64.70
2023-05-16T17:13:44.120Z,65.00
2023-05-16T17:15:51.149Z,64.50
2023-05-16T17:17:58.004Z,65.10
2023-05-16T17:20:08.543Z,65.40
2023-05-16T17:22:15.664Z,65.60
2023-05-16T17:24:22.897Z,65.90
2023-05-16T17:26:30.288Z,66.10
2023-05-16T17:28:37.429Z,66.00
2023-05-16T17:30:44.401Z,66.20
2023-05-16T17:32:51.554Z,66.30
2023-05-16T17:34:58.527Z,66.50
2023-05-16T17:37:08.340Z,66.20
2023-05-16T17:39:15.878Z,65.60
2023-05-16T17:41:23.373Z,65.20
2023-05-16T17:43:32.724Z,65.30
2023-05-16T17:45:39.931Z,65.50
2023-05-16T17:47:46.878Z,65.50
2023-05-16T17:49:54.021Z,65.60
2023-05-16T17:52:01.684Z,65.90
2023-05-16T17:54:10.451Z,65.80
2023-05-16T17:56:17.582Z,65.30
2023-05-16T17:58:24.664Z,65.40
2023-05-16T18:00:31.546Z,66.50
2023-05-16T18:02:38.897Z,66.30
2023-05-16T18:04:46.206Z,68.40
2023-05-16T18:06:55.386Z,68.40
2023-05-16T18:09:02.362Z,69.10
2023-05-16T18:11:11.131Z,70.40
2023-05-16T18:13:18.170Z,71.30
2023-05-16T18:15:25.735Z,71.20
2023-05-16T18:17:32.789Z,72.30
2023-05-16T18:19:40.101Z,72.90
2023-05-16T18:21:47.054Z,73.00
2023-05-16T18:23:54.166Z,72.70
2023-05-16T18:26:01.199Z,72.60
2023-05-16T18:28:10.990Z,72.60
2023-05-16T18:30:18.118Z,71.90
2023-05-16T18:32:25.280Z,71.30
2023-05-16T18:34:32.686Z,71.50
2023-05-16T18:36:39.982Z,71.20
2023-05-16T18:38:46.948Z,70.80
2023-05-16T18:40:54.077Z,71.30
2023-05-16T18:43:01.569Z,71.70
2023-05-16T18:45:11.514Z,71.20
2023-05-16T18:47:19.008Z,70.90
2023-05-16T18:49:25.965Z,70.50
2023-05-16T18:51:33.364Z,69.90
2023-05-16T18:53:40.237Z,69.80
2023-05-16T18:55:47.418Z,69.60
2023-05-16T18:57:54.346Z,69.70
2023-05-16T19:00:01.481Z,69.40
2023-05-16T19:02:10.661Z,69.20
2023-05-16T19:04:17.912Z,68.80
2023-05-16T19:06:24.867Z,68.80
2023-05-16T19:08:46.436Z,69.20
2023-05-16T19:10:55.221Z,68.80
2023-05-16T19:13:08.184Z,68.40
2023-05-16T19:15:15.920Z,68.40
2023-05-16T19:17:25.310Z,69.40
2023-05-16T19:19:32.667Z,69.40
2023-05-16T19:21:40.685Z,69.50
2023-05-16T19:23:48.230Z,69.70
2023-05-16T19:25:58.534Z,69.90
2023-05-16T19:28:06.587Z,70.20
2023-05-16T19:30:14.842Z,70.00
2023-05-16T19:32:21.947Z,70.90
2023-05-16T19:34:31.282Z,70.70
2023-05-16T19:36:38.641Z,70.40
2023-05-16T19:38:45.924Z,70.60
2023-05-16T19:40:52.948Z,71.60
2023-05-16T19:43:00.081Z,72.20
2023-05-16T19:45:07.773Z,73.50
2023-05-16T19:47:15.532Z,73.90
2023-05-16T19:49:22.549Z,75.20
2023-05-16T19:51:40.564Z,75.10
2023-05-16T19:53:48.890Z,75.30
2023-05-16T19:55:56.394Z,75.80
2023-05-16T19:58:03.408Z,76.10
2023-05-16T20:00:13.408Z,75.80
2023-05-16T20:02:22.367Z,75.70
2023-05-16T20:04:32.155Z,75.30
2023-05-16T20:06:40.989Z,75.00
2023-05-16T20:08:48.222Z,75.60
2023-05-16T20:10:55.199Z,75.40
2023-05-16T20:13:02.770Z,75.80
2023-05-16T20:15:12.074Z,75.90
2023-05-16T20:17:19.488Z,75.70
2023-05-16T20:19:30.782Z,75.80
2023-05-16T20:21:40.063Z,76.00
2023-05-16T20:23:47.348Z,75.50
2023-05-16T20:25:54.889Z,76.30
2023-05-16T20:28:02.532Z,76.00
2023-05-16T20:30:11.354Z,75.90
2023-05-16T20:32:18.277Z,75.70
2023-05-16T20:34:25.459Z,75.80
2023-05-16T20:36:32.354Z,75.60
2023-05-16T20:38:41.161Z,75.40
2023-05-16T20:40:48.648Z,75.00
2023-05-16T20:42:55.926Z,74.50
2023-05-16T20:45:02.960Z,74.10
2023-05-16T20:47:10.345Z,73.70
2023-05-16T20:49:17.472Z,73.50
2023-05-16T20:51:24.351Z,73.90
2023-05-16T20:53:31.474Z,74.50
2023-05-16T20:55:40.033Z,74.70
2023-05-16T20:57:47.172Z,75.10
2023-05-16T20:59:54.311Z,75.90
2023-05-16T21:02:01.331Z,76.40
2023-05-16T21:04:08.333Z,76.60
2023-05-16T21:06:15.367Z,76.40
2023-05-16T21:08:22.317Z,75.80
2023-05-16T21:10:29.493Z,75.30
2023-05-16T21:12:38.159Z,74.90
2023-05-16T21:14:45.292Z,74.70
2023-05-16T21:16:53.172Z,74.90
2023-05-16T21:19:02.530Z,76.50
2023-05-16T21:21:09.811Z,78.00
2023-05-16T21:23:16.890Z,78.50
2023-05-16T21:25:23.949Z,79.90
2023-05-16T21:27:31.025Z,80.20
2023-05-16T21:29:39.606Z,80.50
2023-05-16T21:31:46.739Z,81.60
2023-05-16T21:33:54.202Z,81.10
2023-05-16T21:36:01.530Z,81.10
2023-05-16T21:38:08.390Z,81.90
2023-05-16T21:40:20.126Z,81.80
2023-05-16T21:42:26.951Z,81.70
2023-05-16T21:44:34.338Z,81.80
2023-05-16T21:46:43.369Z,81.60
2023-05-16T21:48:50.262Z,81.50
2023-05-16T21:50:57.569Z,82.70
2023-05-16T21:53:04.596Z,83.80
2023-05-16T21:55:12.906Z,83.90
2023-05-16T21:57:19.778Z,84.10
2023-05-16T21:59:26.912Z,84.30
2023-05-16T22:01:33.838Z,84.00
2023-05-16T22:03:42.767Z,83.50
2023-05-16T22:05:49.844Z,83.60
2023-05-16T22:07:59.691Z,83.80
2023-05-16T22:10:06.869Z,84.00
2023-05-16T22:12:14.147Z,84.20
2023-05-16T22:14:21.304Z,83.90
2023-05-16T22:16:28.204Z,83.50
2023-05-16T22:18:35.465Z,83.00
2023-05-16T22:20:44.258Z,82.20
2023-05-16T22:22:51.899Z,81.60
2023-05-16T22:24:58.721Z,81.30
2023-05-16T22:27:05.751Z,81.20
2023-05-16T22:29:12.627Z,81.10
2023-05-16T22:31:19.859Z,80.80
2023-05-16T22:33:26.770Z,80.50
2023-05-16T22:35:33.914Z,80.50
2023-05-16T22:37:42.531Z,80.60
2023-05-16T22:39:49.667Z,80.90
2023-05-16T22:41:56.690Z,81.50
2023-05-16T22:44:03.973Z,82.10
2023-05-16T22:46:10.856Z,82.40
2023-05-16T22:48:18.051Z,82.30
2023-05-16T22:50:24.935Z,82.10
2023-05-16T22:52:32.135Z,81.50
2023-05-16T22:54:42.702Z,81.10
2023-05-16T22:56:50.440Z,80.50
2023-05-16T22:58:57.465Z,80.50
2023-05-16T23:01:05.109Z,80.70
2023-05-16T23:03:12.197Z,80.50
2023-05-16T23:05:19.525Z,80.20
2023-05-16T23:07:26.500Z,80.00
2023-05-16T23:09:33.731Z,80.60
2023-05-16T23:11:42.757Z,80.90
2023-05-16T23:13:50.245Z,80.80
2023-05-16T23:15:57.637Z,80.50
2023-05-16T23:18:05.204Z,80.50
2023-05-16T23:20:12.923Z,80.90
2023-05-16T23:22:20.045Z,81.10
2023-05-16T23:24:27.433Z,81.20
2023-05-16T23:26:35.032Z,81.40
2023-05-16T23:28:44.123Z,81.10
2023-05-16T23:30:51.388Z,80.90
2023-05-16T23:32:58.814Z,80.60
2023-05-16T23:35:06.309Z,80.90
2023-05-16T23:37:13.901Z,80.80
2023-05-16T23:39:22.465Z,81.00
2023-05-16T23:41:29.988Z,80.90
2023-05-16T23:43:37.290Z,81.30
2023-05-16T23:45:46.518Z,81.10
2023-05-16T23:47:54.077Z,80.00
2023-05-16T23:50:01.497Z,79.40
2023-05-16T23:52:09.250Z,78.60
2023-05-16T23:54:16.541Z,77.70
2023-05-16T23:56:23.655Z,77.00
2023-05-16T23:58:30.949Z,76.80
